Sandhurst, United Kingdom
Current Conditions -  °F | °C
As of 9:20 PM on Monday 20 Oct 2014 (Local Time) from EGLF Reporting Station
Few Clouds Few Clouds  
Wind Chill: 13°   Ceiling: Unl
Heat Index: 13°   Visibility: 6mi
Dew Point: 10°   Wind: 13mph
Humidity: 82%   Direction: 210°SSW
Pressure: 29.91"   Gusts: NA
Location:  51.35°N, 0.78°W
Report Text: EGLF 202020Z 21011KT 9999 FEW028 13/10 Q1013
Loading
Personal Weather Stations






























Interactive Weather Map
Tropical Storm Tracking
New forecast layout! Learn more

10-Day Weather Forecast

Advertisements
Track Severe Weather on mobile